createdAt,value
2023-02-15T00:02:03.131Z,102275.59
2023-02-15T00:04:47.747Z,102273.09
2023-02-15T00:07:16.131Z,102268.13
2023-02-15T00:09:42.770Z,102269.22
2023-02-15T00:12:10.774Z,102271.16
2023-02-15T00:14:37.117Z,102262.59
2023-02-15T00:17:04.823Z,102266.75
2023-02-15T00:19:32.198Z,102261.75
2023-02-15T00:21:58.817Z,102258.44
2023-02-15T00:24:25.539Z,102257.63
2023-02-15T00:26:51.938Z,102255.16
2023-02-15T00:29:20.424Z,102252.63
2023-02-15T00:31:47.173Z,102255.41
2023-02-15T00:34:23.887Z,102249.88
2023-02-15T00:36:50.973Z,102254.31
2023-02-15T00:39:18.326Z,102250.72
2023-02-15T00:41:45.477Z,102252.94
2023-02-15T00:44:12.197Z,102244.66
2023-02-15T00:46:38.729Z,102249.34
2023-02-15T00:49:06.109Z,102249.06
2023-02-15T00:51:33.502Z,102241.88
2023-02-15T00:53:59.801Z,102247.41
2023-02-15T00:56:26.301Z,102245.19
2023-02-15T00:58:52.641Z,102240.78
2023-02-15T01:01:21.167Z,102243.53
2023-02-15T01:03:48.013Z,102248.25
2023-02-15T01:06:16.514Z,102254.88
2023-02-15T01:08:42.866Z,102253.78
2023-02-15T01:11:12.093Z,102247.41
2023-02-15T01:13:41.191Z,102257.91
2023-02-15T01:16:08.397Z,102248.50
2023-02-15T01:18:35.558Z,102249.06
2023-02-15T01:21:14.882Z,102254.31
2023-02-15T01:23:43.049Z,102246.03
2023-02-15T01:26:10.519Z,102247.44
2023-02-15T01:28:37.346Z,102243.25
2023-02-15T01:31:12.052Z,102241.88
2023-02-15T01:33:39.417Z,102239.34
2023-02-15T01:36:07.311Z,102246.00
2023-02-15T01:38:36.356Z,102247.34
2023-02-15T01:41:23.694Z,102234.94
2023-02-15T01:43:53.057Z,102239.06
2023-02-15T01:46:23.482Z,102232.19
2023-02-15T01:48:56.383Z,102221.66
2023-02-15T01:51:26.973Z,102227.75
2023-02-15T01:54:02.818Z,102224.41
2023-02-15T01:56:34.268Z,102219.47
2023-02-15T01:59:06.811Z,102218.06
2023-02-15T02:01:33.254Z,102207.84
2023-02-15T02:04:14.083Z,102212.25
2023-02-15T02:06:40.970Z,102213.06
2023-02-15T02:09:07.810Z,102204.78
2023-02-15T02:11:35.611Z,102200.66
2023-02-15T02:14:02.073Z,102204.53
2023-02-15T02:16:31.433Z,102190.97
2023-02-15T02:19:53.699Z,102182.16
2023-02-15T02:22:58.023Z,102177.75
2023-02-15T02:26:17.332Z,102170.81
2023-02-15T02:29:05.277Z,102168.34
2023-02-15T02:32:02.509Z,102169.44
2023-02-15T02:34:47.372Z,102166.94
2023-02-15T02:37:33.993Z,102171.09
2023-02-15T02:40:14.213Z,102169.69
2023-02-15T02:42:54.682Z,102167.22
2023-02-15T02:45:25.881Z,102166.63
2023-02-15T02:47:59.426Z,102163.88
2023-02-15T02:50:30.785Z,102163.06
2023-02-15T02:52:59.629Z,102160.56
2023-02-15T02:55:39.868Z,102156.41
2023-02-15T02:58:09.140Z,102151.47
2023-02-15T03:00:43.913Z,102148.13
2023-02-15T03:03:16.237Z,102149.25
2023-02-15T03:05:46.000Z,102140.69
2023-02-15T03:08:22.778Z,102145.38
2023-02-15T03:10:53.456Z,102146.47
2023-02-15T03:13:20.634Z,102146.19
2023-02-15T03:16:06.343Z,102135.41
2023-02-15T03:18:39.878Z,102141.22
2023-02-15T03:21:10.458Z,102134.31
2023-02-15T03:23:39.255Z,102141.75
2023-02-15T03:26:10.463Z,102140.41
2023-02-15T03:28:42.332Z,102139.56
2023-02-15T03:31:11.067Z,102135.13
2023-02-15T03:33:45.544Z,102143.69
2023-02-15T03:36:26.635Z,102139.28
2023-02-15T03:39:17.266Z,102133.19
2023-02-15T03:41:51.338Z,102129.06
2023-02-15T03:44:28.015Z,102142.28
2023-02-15T03:47:16.831Z,102134.28
2023-02-15T03:49:48.639Z,102142.25
2023-02-15T03:52:16.957Z,102132.03
2023-02-15T03:54:44.633Z,102130.66
2023-02-15T03:57:36.360Z,102132.88
2023-02-15T04:00:27.454Z,102125.97
2023-02-15T04:03:16.584Z,102121.81
2023-02-15T04:05:44.715Z,102126.50
2023-02-15T04:08:13.081Z,102124.84
2023-02-15T04:10:56.913Z,102128.69
2023-02-15T04:13:30.595Z,102126.47
2023-02-15T04:16:07.348Z,102123.16
2023-02-15T04:18:55.846Z,102125.34
2023-02-15T04:21:42.331Z,102124.81
2023-02-15T04:24:28.199Z,102117.63
2023-02-15T04:26:55.500Z,102129.78
2023-02-15T04:29:23.045Z,102136.38
2023-02-15T04:31:50.487Z,102135.53
2023-02-15T04:34:17.169Z,102124.50
2023-02-15T04:36:45.245Z,102123.69
2023-02-15T04:39:14.787Z,102120.38
2023-02-15T04:41:41.511Z,102131.41
2023-02-15T04:44:10.956Z,102122.31
2023-02-15T04:49:04.927Z,102105.75
2023-02-15T04:51:31.660Z,102112.34
2023-02-15T04:53:58.051Z,102109.59
2023-02-15T04:56:24.446Z,102105.19
2023-02-15T04:58:51.010Z,102107.94
2023-02-15T05:01:18.436Z,102104.34
2023-02-15T05:03:44.914Z,102100.78
2023-02-15T05:06:11.285Z,102109.34
2023-02-15T05:08:37.936Z,102102.72
2023-02-15T05:11:04.544Z,102103.00
2023-02-15T05:13:31.157Z,102104.06
2023-02-15T05:15:57.675Z,102098.81
2023-02-15T05:18:24.185Z,102090.56
2023-02-15T05:20:50.693Z,102092.50
2023-02-15T05:23:17.314Z,102084.50
2023-02-15T05:26:10.129Z,102083.91
2023-02-15T05:28:38.134Z,102091.09
2023-02-15T05:31:18.099Z,102088.31
2023-02-15T05:33:45.438Z,102091.38
2023-02-15T05:36:12.138Z,102081.72
2023-02-15T05:38:39.511Z,102083.06
2023-02-15T05:41:10.470Z,102082.78
2023-02-15T05:43:37.915Z,102081.69
2023-02-15T05:46:06.717Z,102081.69
2023-02-15T05:48:33.970Z,102074.50
2023-02-15T05:51:05.440Z,102070.09
2023-02-15T05:53:34.858Z,102074.78
2023-02-15T05:56:03.633Z,102067.34
2023-02-15T05:58:39.718Z,102065.97
2023-02-15T06:01:13.751Z,102066.50
2023-02-15T06:03:40.342Z,102065.41
2023-02-15T06:06:07.595Z,102062.94
2023-02-15T06:08:35.595Z,102064.03
2023-02-15T06:11:02.341Z,102068.44
2023-02-15T06:13:29.353Z,102079.47
2023-02-15T06:15:56.002Z,102068.44
2023-02-15T06:18:22.518Z,102070.38
2023-02-15T06:20:49.615Z,102073.41
2023-02-15T06:23:16.306Z,102071.72
2023-02-15T06:25:42.972Z,102070.09
2023-02-15T06:28:09.296Z,102077.25
2023-02-15T06:30:35.921Z,102075.59
2023-02-15T06:33:02.302Z,102073.66
2023-02-15T06:35:28.939Z,102069.25
2023-02-15T06:37:55.542Z,102070.09
2023-02-15T06:40:22.029Z,102072.84
2023-02-15T06:42:50.025Z,102083.03
2023-02-15T06:45:16.643Z,102073.94
2023-02-15T06:47:44.006Z,102072.84
2023-02-15T06:50:11.436Z,102074.75
2023-02-15T06:52:37.834Z,102084.44
2023-02-15T06:55:04.487Z,102074.25
2023-02-15T06:57:31.002Z,102075.88
2023-02-15T06:59:59.292Z,102073.97
2023-02-15T07:02:25.790Z,102076.72
2023-02-15T07:04:52.429Z,102077.00
2023-02-15T07:07:18.779Z,102075.06
2023-02-15T07:09:45.160Z,102075.63
2023-02-15T07:12:30.252Z,102078.09
2023-02-15T07:14:57.070Z,102081.44
2023-02-15T07:17:39.007Z,102072.03
2023-02-15T07:20:08.780Z,102079.22
2023-02-15T07:22:37.378Z,102080.03
2023-02-15T07:25:05.554Z,102071.78
2023-02-15T07:27:32.868Z,102074.28
2023-02-15T07:30:00.459Z,102063.50
2023-02-15T07:32:31.704Z,102071.53
2023-02-15T07:34:58.467Z,102060.53
2023-02-15T07:37:26.280Z,102060.81
2023-02-15T07:39:53.072Z,102065.53
2023-02-15T07:42:20.947Z,102063.84
2023-02-15T07:44:50.380Z,102054.75
2023-02-15T07:47:17.004Z,102043.75
2023-02-15T07:49:43.519Z,102046.50
2023-02-15T07:52:09.923Z,102048.19
2023-02-15T07:54:36.618Z,102048.19
2023-02-15T07:57:03.241Z,102045.44
2023-02-15T07:59:29.890Z,102045.44
2023-02-15T08:01:57.370Z,102038.28
2023-02-15T08:04:24.332Z,102039.66
2023-02-15T08:06:54.256Z,102035.81
2023-02-15T08:09:21.495Z,102034.41
2023-02-15T08:11:48.187Z,102029.44
2023-02-15T08:14:17.398Z,102028.88
2023-02-15T08:16:48.273Z,102036.59
2023-02-15T08:19:19.292Z,102028.03
2023-02-15T08:21:48.263Z,102020.81
2023-02-15T08:24:16.233Z,102021.09
2023-02-15T08:26:43.727Z,102023.00
2023-02-15T08:29:10.527Z,102016.63
2023-02-15T08:31:38.510Z,102016.31
2023-02-15T08:34:05.841Z,102013.53
2023-02-15T08:36:34.837Z,102014.84
2023-02-15T08:39:04.023Z,102016.16
2023-02-15T08:41:37.625Z,102010.28
2023-02-15T08:44:08.593Z,102005.22
2023-02-15T08:46:37.446Z,102000.16
2023-02-15T08:49:05.680Z,102003.09
2023-02-15T08:51:35.150Z,102003.84
2023-02-15T08:54:06.785Z,101992.94
2023-02-15T08:56:36.074Z,101995.34
2023-02-15T08:59:03.457Z,101996.06
2023-02-15T09:01:32.183Z,101994.56
2023-02-15T09:04:05.065Z,101996.91
2023-02-15T09:06:31.773Z,101991.00
2023-02-15T09:08:58.346Z,101991.72
2023-02-15T09:11:28.604Z,101988.81
2023-02-15T09:14:01.564Z,101986.22
2023-02-15T09:16:30.455Z,101982.72
2023-02-15T09:18:58.935Z,101977.34
2023-02-15T09:21:26.920Z,101970.00
2023-02-15T09:24:01.989Z,101975.41
2023-02-15T09:26:30.926Z,101974.41
2023-02-15T09:29:01.624Z,101974.25
2023-02-15T09:31:30.963Z,101965.78
2023-02-15T09:34:00.044Z,101970.06
2023-02-15T09:36:29.321Z,101969.06
2023-02-15T09:38:58.408Z,101968.06
2023-02-15T09:41:43.576Z,101969.00
2023-02-15T09:44:25.212Z,101972.44
2023-02-15T09:47:21.047Z,101968.97
2023-02-15T09:50:24.831Z,101961.81
2023-02-15T09:53:16.181Z,101960.47
2023-02-15T09:55:52.289Z,101965.81
2023-02-15T09:59:06.886Z,101962.34
2023-02-15T10:01:40.622Z,101962.66
2023-02-15T10:04:41.447Z,101958.00
2023-02-15T10:07:39.437Z,101956.66
2023-02-15T10:10:41.235Z,101955.00
2023-02-15T10:13:46.367Z,101954.13
2023-02-15T10:17:03.420Z,101942.97
2023-02-15T10:20:20.662Z,101947.03
2023-02-15T10:22:53.092Z,101948.34
2023-02-15T10:25:36.561Z,101953.03
2023-02-15T10:28:07.431Z,101953.25
2023-02-15T10:30:45.946Z,101959.91
2023-02-15T10:33:37.055Z,101961.78
2023-02-15T10:36:06.454Z,101960.56
2023-02-15T10:38:55.564Z,101954.38
2023-02-15T10:41:35.431Z,101954.59
2023-02-15T10:44:41.414Z,101955.59
2023-02-15T10:47:31.705Z,101947.44
2023-02-15T10:50:01.128Z,101951.78
2023-02-15T10:52:56.613Z,101941.47
2023-02-15T10:55:53.081Z,101931.28
2023-02-15T10:58:41.643Z,101935.91
2023-02-15T11:01:31.724Z,101930.78
2023-02-15T11:04:26.143Z,101931.78
2023-02-15T11:07:00.984Z,101912.38
2023-02-15T11:09:39.681Z,101916.13
2023-02-15T11:12:12.620Z,101921.03
2023-02-15T11:14:55.111Z,101922.72
2023-02-15T11:17:36.362Z,101925.16
2023-02-15T11:20:23.906Z,101919.66
2023-02-15T11:22:52.057Z,101915.50
2023-02-15T11:25:23.293Z,101916.78
2023-02-15T11:27:51.357Z,101915.56
2023-02-15T11:30:24.483Z,101906.44
2023-02-15T11:32:58.071Z,101908.19
2023-02-15T11:35:51.882Z,101909.75
2023-02-15T11:38:32.307Z,101900.28
2023-02-15T11:41:20.854Z,101893.97
2023-02-15T11:44:12.182Z,101896.00
2023-02-15T11:46:39.315Z,101902.94
2023-02-15T11:49:27.183Z,101895.19
2023-02-15T11:51:54.442Z,101894.84
2023-02-15T11:54:27.105Z,101893.13
2023-02-15T11:56:54.256Z,101891.53
2023-02-15T11:59:30.913Z,101881.38
2023-02-15T12:01:57.477Z,101876.16
2023-02-15T12:04:42.303Z,101875.91
2023-02-15T12:07:16.901Z,101867.91
2023-02-15T12:09:57.450Z,101862.53
2023-02-15T12:12:27.012Z,101866.50
2023-02-15T12:14:57.378Z,101864.03
2023-02-15T12:17:40.520Z,101855.38
2023-02-15T12:20:15.832Z,101855.63
2023-02-15T12:23:03.980Z,101855.03
2023-02-15T12:25:37.448Z,101856.53
2023-02-15T12:28:17.773Z,101849.16
2023-02-15T12:30:44.632Z,101840.59
2023-02-15T12:33:24.042Z,101843.50
2023-02-15T12:35:58.425Z,101844.19
2023-02-15T12:38:26.481Z,101839.63
2023-02-15T12:41:22.029Z,101836.56
2023-02-15T12:43:48.636Z,101836.41
2023-02-15T12:46:24.593Z,101831.59
2023-02-15T12:49:21.344Z,101826.09
2023-02-15T12:51:52.721Z,101830.28
2023-02-15T12:54:37.777Z,101829.09
2023-02-15T12:57:36.490Z,101834.00
2023-02-15T13:00:21.869Z,101822.03
2023-02-15T13:02:52.784Z,101824.59
2023-02-15T13:05:39.479Z,101826.56
2023-02-15T13:08:16.372Z,101819.78
2023-02-15T13:10:54.641Z,101810.19
2023-02-15T13:13:25.299Z,101810.25
2023-02-15T13:15:55.074Z,101803.81
2023-02-15T13:18:31.878Z,101794.94
2023-02-15T13:21:13.546Z,101787.69
2023-02-15T13:23:49.289Z,101784.97
2023-02-15T13:26:23.533Z,101778.19
2023-02-15T13:28:54.450Z,101784.25
2023-02-15T13:31:24.640Z,101779.53
2023-02-15T13:33:56.062Z,101777.97
2023-02-15T13:36:45.358Z,101771.66
2023-02-15T13:39:22.126Z,101776.63
2023-02-15T13:42:06.857Z,101766.28
2023-02-15T13:44:52.890Z,101762.41
2023-02-15T13:47:51.333Z,101765.31
2023-02-15T13:50:37.204Z,101755.88
2023-02-15T13:53:23.963Z,101761.50
2023-02-15T13:56:06.721Z,101752.34
2023-02-15T13:58:53.990Z,101762.88
2023-02-15T14:01:32.111Z,101754.06
2023-02-15T14:04:15.123Z,101759.34
2023-02-15T14:06:50.961Z,101764.69
2023-02-15T14:09:44.084Z,101761.41
2023-02-15T14:12:34.222Z,101759.06
2023-02-15T14:15:29.210Z,101751.06
2023-02-15T14:18:16.129Z,101747.16
2023-02-15T14:20:46.685Z,101758.41
2023-02-15T14:23:30.626Z,101754.31
2023-02-15T14:26:23.204Z,101750.69
2023-02-15T14:29:12.568Z,101743.91
2023-02-15T14:31:47.013Z,101741.53
2023-02-15T14:34:31.321Z,101738.28
2023-02-15T14:36:58.753Z,101729.88
2023-02-15T14:39:55.761Z,101734.34
2023-02-15T14:42:32.109Z,101732.72
2023-02-15T14:45:06.195Z,101729.88
2023-02-15T14:47:39.547Z,101739.16
2023-02-15T14:50:46.198Z,101736.28
2023-02-15T14:53:28.661Z,101729.47
2023-02-15T14:56:18.962Z,101727.84
2023-02-15T14:58:52.510Z,101725.00
2023-02-15T15:01:33.780Z,101726.53
2023-02-15T15:04:05.465Z,101726.16
2023-02-15T15:06:38.366Z,101724.94
2023-02-15T15:09:20.845Z,101725.31
2023-02-15T15:11:49.261Z,101727.28
2023-02-15T15:14:35.619Z,101723.94
2023-02-15T15:17:06.783Z,101723.50
2023-02-15T15:19:52.834Z,101725.28
2023-02-15T15:22:26.760Z,101730.84
2023-02-15T15:25:05.622Z,101725.00
2023-02-15T15:27:54.089Z,101721.19
2023-02-15T15:30:23.509Z,101721.47
2023-02-15T15:32:56.056Z,101710.44
2023-02-15T15:35:31.147Z,101719.41
2023-02-15T15:38:16.203Z,101712.34
2023-02-15T15:41:24.564Z,101722.13
2023-02-15T15:44:09.474Z,101715.09
2023-02-15T15:47:10.444Z,101721.50
2023-02-15T15:49:38.997Z,101713.22
2023-02-15T15:52:16.146Z,101715.03
2023-02-15T15:54:43.912Z,101714.47
2023-02-15T15:57:40.208Z,101713.94
2023-02-15T16:00:31.697Z,101709.16
2023-02-15T16:02:58.320Z,101708.16
2023-02-15T16:05:24.920Z,101711.78
2023-02-15T16:07:51.468Z,101711.84
2023-02-15T16:10:28.967Z,101714.19
2023-02-15T16:12:56.540Z,101721.53
2023-02-15T16:15:36.283Z,101718.75
2023-02-15T16:18:03.215Z,101718.50
2023-02-15T16:20:36.839Z,101708.47
2023-02-15T16:23:21.410Z,101712.56
2023-02-15T16:26:19.245Z,101711.84
2023-02-15T16:28:53.673Z,101713.44
2023-02-15T16:31:23.252Z,101716.00
2023-02-15T16:33:54.379Z,101719.59
2023-02-15T16:36:28.699Z,101719.22
2023-02-15T16:38:58.327Z,101722.91
2023-02-15T16:41:29.948Z,101720.19
2023-02-15T16:44:13.973Z,101720.94
2023-02-15T16:46:44.541Z,101721.16
2023-02-15T16:49:23.974Z,101726.34
2023-02-15T16:52:01.159Z,101725.59
2023-02-15T16:54:29.996Z,101718.59
2023-02-15T16:56:59.797Z,101720.63
2023-02-15T16:59:40.111Z,101717.06
2023-02-15T17:02:23.611Z,101720.44
2023-02-15T17:05:14.628Z,101729.88
2023-02-15T17:07:43.628Z,101728.75
2023-02-15T17:10:37.167Z,101733.91
2023-02-15T17:13:11.211Z,101730.84
2023-02-15T17:15:40.682Z,101731.69
2023-02-15T17:18:22.710Z,101732.41
2023-02-15T17:20:53.284Z,101739.81
2023-02-15T17:23:31.528Z,101740.66
2023-02-15T17:26:01.529Z,101740.03
2023-02-15T17:28:31.458Z,101747.28
2023-02-15T17:30:59.409Z,101746.16
2023-02-15T17:33:33.857Z,101749.13
2023-02-15T17:36:16.907Z,101744.38
2023-02-15T17:38:58.367Z,101737.66
2023-02-15T17:41:24.948Z,101728.78
2023-02-15T17:43:51.377Z,101724.53
2023-02-15T17:46:19.824Z,101720.78
2023-02-15T17:48:49.064Z,101727.34
2023-02-15T17:51:17.086Z,101725.22
2023-02-15T17:54:06.798Z,101715.03
2023-02-15T17:56:37.982Z,101721.28
2023-02-15T17:59:08.071Z,101729.16
2023-02-15T18:01:55.945Z,101737.66
2023-02-15T18:04:41.743Z,101736.69
2023-02-15T18:07:28.945Z,101735.22
2023-02-15T18:10:14.034Z,101738.16
2023-02-15T18:12:40.798Z,101735.53
2023-02-15T18:15:10.896Z,101747.34
2023-02-15T18:17:42.661Z,101738.31
2023-02-15T18:20:24.232Z,101744.88
2023-02-15T18:22:52.165Z,101730.94
2023-02-15T18:25:21.104Z,101741.94
2023-02-15T18:27:47.466Z,101741.44
2023-02-15T18:30:15.985Z,101746.84
2023-02-15T18:32:43.353Z,101742.75
2023-02-15T18:35:16.470Z,101751.09
2023-02-15T18:37:45.370Z,101750.13
2023-02-15T18:40:23.625Z,101755.84
2023-02-15T18:42:50.084Z,101755.03
2023-02-15T18:45:25.211Z,101756.47
2023-02-15T18:47:51.694Z,101757.31
2023-02-15T18:50:20.824Z,101759.28
2023-02-15T18:52:50.901Z,101763.06
2023-02-15T18:55:32.436Z,101761.59
2023-02-15T18:57:59.412Z,101770.81
2023-02-15T19:00:33.924Z,101766.19
2023-02-15T19:03:02.844Z,101771.78
2023-02-15T19:05:31.795Z,101770.00
2023-02-15T19:08:01.546Z,101777.03
2023-02-15T19:10:31.187Z,101770.47
2023-02-15T19:12:57.838Z,101774.44
2023-02-15T19:15:30.686Z,101781.31
2023-02-15T19:17:57.405Z,101776.41
2023-02-15T19:20:27.965Z,101774.97
2023-02-15T19:22:56.402Z,101780.72
2023-02-15T19:25:28.346Z,101773.16
2023-02-15T19:27:56.273Z,101777.28
2023-02-15T19:30:30.095Z,101779.22
2023-02-15T19:32:58.525Z,101780.06
2023-02-15T19:35:28.967Z,101780.72
2023-02-15T19:38:00.366Z,101776.59
2023-02-15T19:40:30.865Z,101787.59
2023-02-15T19:42:59.726Z,101786.59
2023-02-15T19:45:28.665Z,101785.59
2023-02-15T19:47:55.230Z,101777.88
2023-02-15T19:50:25.990Z,101784.44
2023-02-15T19:52:54.409Z,101785.94
2023-02-15T19:55:25.493Z,101781.81
2023-02-15T19:57:53.057Z,101781.66
2023-02-15T20:00:22.802Z,101780.66
2023-02-15T20:02:49.606Z,101779.00
2023-02-15T20:05:16.125Z,101777.22
2023-02-15T20:07:47.002Z,101787.38
2023-02-15T20:10:19.945Z,101789.16
2023-02-15T20:12:47.582Z,101783.41
2023-02-15T20:15:27.592Z,101789.97
2023-02-15T20:17:54.288Z,101782.28
2023-02-15T20:20:26.914Z,101789.94
2023-02-15T20:22:55.265Z,101779.44
2023-02-15T20:25:26.817Z,101795.50
2023-02-15T20:27:53.838Z,101795.00
2023-02-15T20:30:22.204Z,101800.09
2023-02-15T20:32:49.021Z,101799.56
2023-02-15T20:35:19.369Z,101801.06
2023-02-15T20:37:47.708Z,101806.09
2023-02-15T20:40:27.829Z,101797.91
2023-02-15T20:42:56.284Z,101796.78
2023-02-15T20:45:29.147Z,101785.09
2023-02-15T20:47:56.009Z,101790.69
2023-02-15T20:50:34.057Z,101792.16
2023-02-15T20:53:02.589Z,101789.38
2023-02-15T20:55:30.155Z,101788.53
2023-02-15T20:57:57.958Z,101787.91
2023-02-15T21:00:31.163Z,101796.06
2023-02-15T21:02:59.852Z,101784.44
2023-02-15T21:05:33.130Z,101789.81
2023-02-15T21:08:00.429Z,101797.38
2023-02-15T21:10:33.211Z,101795.22
2023-02-15T21:13:01.174Z,101792.75
2023-02-15T21:15:33.648Z,101804.56
2023-02-15T21:18:06.201Z,101793.72
2023-02-15T21:20:35.304Z,101802.41
2023-02-15T21:23:05.031Z,101801.06
2023-02-15T21:25:38.151Z,101804.81
2023-02-15T21:28:09.786Z,101802.88
2023-02-15T21:30:36.176Z,101805.13
2023-02-15T21:33:02.851Z,101809.41
2023-02-15T21:35:29.412Z,101806.91
2023-02-15T21:37:56.262Z,101818.06
2023-02-15T21:40:28.954Z,101814.78
2023-02-15T21:43:14.695Z,101821.50
2023-02-15T21:45:59.952Z,101812.31
2023-02-15T21:48:26.372Z,101813.78
2023-02-15T21:51:11.516Z,101816.84
2023-02-15T21:53:43.719Z,101816.66
2023-02-15T21:56:13.811Z,101810.91
2023-02-15T21:58:40.284Z,101806.81
2023-02-15T22:01:07.423Z,101813.50
2023-02-15T22:03:38.107Z,101815.78
2023-02-15T22:06:08.398Z,101812.81
2023-02-15T22:08:34.953Z,101814.28
2023-02-15T22:11:01.749Z,101814.56
2023-02-15T22:13:31.735Z,101812.44
2023-02-15T22:15:58.690Z,101808.31
2023-02-15T22:18:28.238Z,101808.97
2023-02-15T22:20:55.687Z,101806.47
2023-02-15T22:23:23.135Z,101806.31
2023-02-15T22:25:56.029Z,101808.09
2023-02-15T22:28:43.467Z,101802.66
2023-02-15T22:31:16.403Z,101797.38
2023-02-15T22:33:44.760Z,101798.53
2023-02-15T22:36:23.412Z,101798.16
2023-02-15T22:38:49.903Z,101802.56
2023-02-15T22:41:17.133Z,101801.56
2023-02-15T22:43:46.123Z,101796.31
2023-02-15T22:46:19.049Z,101801.69
2023-02-15T22:48:50.081Z,101811.16
2023-02-15T22:51:19.942Z,101809.81
2023-02-15T22:53:49.418Z,101809.81
2023-02-15T22:56:20.019Z,101814.38
2023-02-15T22:58:49.404Z,101805.19
2023-02-15T23:01:29.669Z,101806.16
2023-02-15T23:03:56.417Z,101800.59
2023-02-15T23:06:22.896Z,101815.63
2023-02-15T23:08:49.480Z,101798.44
2023-02-15T23:11:16.911Z,101811.00
2023-02-15T23:13:43.246Z,101811.81
2023-02-15T23:16:15.638Z,101809.69
2023-02-15T23:18:44.140Z,101803.31
2023-02-15T23:21:20.696Z,101809.16
2023-02-15T23:23:50.387Z,101804.44
2023-02-15T23:26:23.419Z,101802.47
2023-02-15T23:28:51.516Z,101796.91
2023-02-15T23:31:27.372Z,101793.28
2023-02-15T23:33:54.834Z,101794.97
2023-02-15T23:36:36.795Z,101800.81
2023-02-15T23:39:41.834Z,101792.81
2023-02-15T23:42:13.901Z,101796.06
2023-02-15T23:44:42.938Z,101790.53
2023-02-15T23:47:20.715Z,101795.91
2023-02-15T23:49:47.486Z,101784.47
2023-02-15T23:52:13.991Z,101791.97
2023-02-15T23:54:40.346Z,101783.66
2023-02-15T23:57:06.918Z,101794.25
2023-02-15T23:59:33.279Z,101785.91
